createdAt,value
2019-03-18T00:00:17.068Z,77.93
2019-03-18T00:02:46.791Z,78.03
2019-03-18T00:05:16.855Z,78.07
2019-03-18T00:07:44.510Z,78.08
2019-03-18T00:10:15.111Z,78.27
2019-03-18T00:12:42.640Z,78.39
2019-03-18T00:15:10.085Z,78.48
2019-03-18T00:17:37.576Z,78.58
2019-03-18T00:20:05.385Z,78.55
2019-03-18T00:22:33.060Z,78.72
2019-03-18T00:25:01.048Z,78.74
2019-03-18T00:27:30.125Z,79.09
2019-03-18T00:29:58.025Z,79.27
2019-03-18T00:32:25.690Z,79.05
2019-03-18T00:34:56.002Z,79.05
2019-03-18T00:37:23.678Z,79.09
2019-03-18T00:39:52.592Z,79.18
2019-03-18T00:42:27.205Z,79.41
2019-03-18T00:44:59.074Z,79.32
2019-03-18T00:47:38.400Z,79.06
2019-03-18T00:50:12.090Z,79.29
2019-03-18T00:52:44.579Z,79.27
2019-03-18T00:55:16.208Z,79.64
2019-03-18T00:57:43.650Z,79.54
2019-03-18T01:00:13.433Z,79.42
2019-03-18T01:02:42.352Z,79.17
2019-03-18T01:05:16.521Z,79.28
2019-03-18T01:08:21.625Z,79.67
2019-03-18T01:12:10.159Z,79.44
2019-03-18T01:15:27.828Z,79.80
2019-03-18T01:17:54.864Z,79.62
2019-03-18T01:20:26.140Z,79.71
2019-03-18T01:22:53.617Z,79.91
2019-03-18T01:25:23.254Z,79.58
2019-03-18T01:27:57.516Z,79.69
2019-03-18T01:30:25.775Z,79.57
2019-03-18T01:32:58.655Z,79.46
2019-03-18T01:35:26.312Z,79.02
2019-03-18T01:37:57.830Z,79.14
2019-03-18T01:40:25.295Z,79.24
2019-03-18T01:42:56.725Z,79.26
2019-03-18T01:45:40.577Z,79.03
2019-03-18T01:55:34.590Z,79.28
2019-03-18T01:59:04.875Z,79.25
2019-03-18T02:01:52.929Z,79.08
2019-03-18T02:04:38.315Z,79.31
2019-03-18T02:07:18.305Z,79.14
2019-03-18T02:10:06.504Z,79.23
2019-03-18T02:12:56.705Z,78.86
2019-03-18T02:15:36.512Z,78.75
2019-03-18T02:18:04.460Z,78.85
2019-03-18T02:20:32.204Z,78.86
2019-03-18T02:23:05.939Z,78.74
2019-03-18T02:25:46.136Z,78.68
2019-03-18T02:28:15.232Z,78.77
2019-03-18T02:30:43.085Z,78.62
2019-03-18T02:33:10.890Z,78.85
2019-03-18T02:35:57.169Z,78.59
2019-03-18T02:38:27.720Z,78.63
2019-03-18T02:41:37.312Z,78.53
2019-03-18T02:44:16.069Z,78.77
2019-03-18T02:47:00.278Z,79.01
2019-03-18T02:49:38.186Z,78.75
2019-03-18T02:55:21.259Z,78.51
2019-03-18T02:58:01.593Z,78.90
2019-03-18T03:00:36.632Z,80.01
2019-03-18T03:03:04.401Z,81.25
2019-03-18T03:05:32.162Z,82.05
2019-03-18T03:08:02.188Z,83.20
2019-03-18T03:10:29.566Z,83.63
2019-03-18T03:12:59.399Z,84.42
2019-03-18T03:15:30.325Z,85.03
2019-03-18T03:17:57.884Z,85.56
2019-03-18T03:20:25.345Z,85.94
2019-03-18T03:22:55.601Z,86.07
2019-03-18T03:25:24.922Z,86.22
2019-03-18T03:27:54.850Z,86.61
2019-03-18T03:30:22.411Z,86.92
2019-03-18T03:32:49.945Z,86.99
2019-03-18T03:35:17.351Z,87.00
2019-03-18T03:37:44.888Z,86.96
2019-03-18T03:40:12.541Z,87.19
2019-03-18T03:42:39.994Z,87.19
2019-03-18T03:45:07.399Z,87.27
2019-03-18T03:47:34.936Z,87.09
2019-03-18T03:50:02.360Z,87.42
2019-03-18T03:52:29.949Z,87.32
2019-03-18T03:54:58.925Z,87.22
2019-03-18T03:57:26.561Z,87.24
2019-03-18T03:59:55.691Z,87.28
2019-03-18T04:02:23.267Z,87.38
2019-03-18T04:04:50.815Z,87.25
2019-03-18T04:07:18.340Z,87.11
2019-03-18T04:09:45.757Z,87.05
2019-03-18T04:12:13.269Z,87.30
2019-03-18T04:14:40.761Z,86.98
2019-03-18T04:17:13.469Z,86.89
2019-03-18T04:19:47.488Z,87.00
2019-03-18T04:22:15.508Z,87.20
2019-03-18T04:24:45.654Z,87.20
2019-03-18T04:27:13.879Z,87.32
2019-03-18T04:29:41.633Z,87.08
2019-03-18T04:32:12.644Z,87.22
2019-03-18T04:34:40.583Z,87.30
2019-03-18T04:37:08.274Z,87.25
2019-03-18T04:39:35.735Z,87.32
2019-03-18T04:42:03.450Z,87.23
2019-03-18T04:44:31.231Z,87.14
2019-03-18T04:46:58.847Z,87.11
2019-03-18T04:49:26.305Z,87.15
2019-03-18T04:51:53.757Z,87.29
2019-03-18T04:54:21.343Z,87.46
2019-03-18T04:56:49.059Z,87.63
2019-03-18T04:59:16.526Z,87.38
2019-03-18T05:01:43.929Z,87.39
2019-03-18T05:04:13.525Z,87.30
2019-03-18T05:06:40.906Z,87.18
2019-03-18T05:09:08.490Z,87.16
2019-03-18T05:11:36.925Z,87.17
2019-03-18T05:14:04.348Z,87.02
2019-03-18T05:16:31.769Z,87.23
2019-03-18T05:18:59.315Z,87.21
2019-03-18T05:21:26.681Z,87.39
2019-03-18T05:23:54.122Z,87.37
2019-03-18T05:26:22.449Z,87.30
2019-03-18T05:28:50.136Z,87.48
2019-03-18T05:31:17.557Z,87.48
2019-03-18T05:33:45.021Z,87.81
2019-03-18T05:36:12.391Z,87.79
2019-03-18T05:38:39.915Z,87.31
2019-03-18T05:41:07.337Z,87.67
2019-03-18T05:43:34.751Z,87.36
2019-03-18T05:46:02.243Z,87.50
2019-03-18T05:48:31.242Z,87.53
2019-03-18T05:50:59.536Z,87.15
2019-03-18T05:53:26.998Z,87.21
2019-03-18T05:55:57.899Z,87.20
2019-03-18T05:58:26.628Z,87.18
2019-03-18T06:00:54.045Z,86.66
2019-03-18T06:03:21.540Z,86.69
2019-03-18T06:05:49.005Z,86.79
2019-03-18T06:08:16.766Z,86.58
2019-03-18T06:10:48.437Z,86.38
2019-03-18T06:13:17.494Z,86.56
2019-03-18T06:15:45.385Z,86.61
2019-03-18T06:18:12.911Z,86.48
2019-03-18T06:20:40.432Z,86.77
2019-03-18T06:23:07.957Z,86.41
2019-03-18T06:25:35.419Z,86.06
2019-03-18T06:28:06.150Z,86.03
2019-03-18T06:30:33.543Z,86.01
2019-03-18T06:33:01.092Z,86.10
2019-03-18T06:35:28.516Z,85.75
2019-03-18T06:37:56.100Z,85.67
2019-03-18T06:40:24.420Z,85.37
2019-03-18T06:42:52.136Z,85.31
2019-03-18T06:45:19.651Z,85.25
2019-03-18T06:47:47.214Z,85.04
2019-03-18T06:50:37.463Z,85.35
2019-03-18T06:52:52.761Z,84.79
2019-03-18T06:55:27.388Z,84.27
2019-03-18T06:57:57.752Z,83.74
2019-03-18T07:00:25.130Z,84.56
2019-03-18T07:02:52.540Z,85.07
2019-03-18T07:05:19.948Z,85.91
2019-03-18T07:07:47.341Z,86.43
2019-03-18T07:10:14.988Z,86.56
2019-03-18T07:12:42.435Z,86.46
2019-03-18T07:15:10.131Z,86.27
2019-03-18T07:17:37.611Z,86.54
2019-03-18T07:20:06.041Z,86.22
2019-03-18T07:22:42.077Z,85.75
2019-03-18T07:25:09.263Z,84.69
2019-03-18T07:27:36.675Z,84.32
2019-03-18T07:30:04.736Z,83.89
2019-03-18T07:32:32.110Z,84.08
2019-03-18T07:34:59.667Z,83.58
2019-03-18T07:37:27.150Z,83.79
2019-03-18T07:39:54.629Z,83.63
2019-03-18T07:42:22.070Z,83.65
2019-03-18T07:44:49.473Z,83.87
2019-03-18T07:47:33.114Z,83.63
2019-03-18T07:50:03.090Z,83.42
2019-03-18T07:52:30.483Z,84.09
2019-03-18T07:55:03.675Z,83.48
2019-03-18T07:57:32.692Z,83.30
2019-03-18T08:00:00.467Z,83.07
2019-03-18T08:02:27.825Z,83.16
2019-03-18T08:04:55.380Z,82.78
2019-03-18T08:07:22.845Z,81.85
2019-03-18T08:09:50.340Z,82.05
2019-03-18T08:12:18.111Z,81.44
2019-03-18T08:14:45.581Z,79.81
2019-03-18T08:17:15.224Z,78.69
2019-03-18T08:19:42.727Z,77.96
2019-03-18T08:22:10.971Z,77.85
2019-03-18T08:24:38.430Z,77.25
2019-03-18T08:27:05.961Z,76.99
2019-03-18T08:29:48.140Z,75.25
2019-03-18T08:33:01.401Z,73.39
2019-03-18T08:35:34.838Z,74.58
2019-03-18T08:38:19.171Z,75.68
2019-03-18T08:40:54.781Z,76.92
2019-03-18T08:43:24.250Z,77.78
2019-03-18T08:45:51.753Z,77.04
2019-03-18T08:48:20.753Z,77.09
2019-03-18T08:50:48.307Z,76.30
2019-03-18T08:53:15.701Z,74.11
2019-03-18T08:55:43.230Z,73.50
2019-03-18T08:58:10.834Z,72.23
2019-03-18T09:00:38.514Z,72.29
2019-03-18T09:03:05.994Z,72.75
2019-03-18T09:05:36.703Z,72.76
2019-03-18T09:08:07.952Z,72.65
2019-03-18T09:10:35.847Z,70.76
2019-03-18T09:13:10.875Z,68.90
2019-03-18T09:21:51.152Z,68.25
2019-03-18T09:24:18.812Z,69.64
2019-03-18T09:27:01.807Z,69.76
2019-03-18T09:29:25.693Z,70.16
2019-03-18T09:31:53.355Z,70.31
2019-03-18T09:34:21.072Z,70.97
2019-03-18T09:36:48.572Z,71.21
2019-03-18T09:39:16.156Z,71.05
2019-03-18T09:41:43.784Z,71.69
2019-03-18T09:44:11.392Z,72.49
2019-03-18T09:46:39.172Z,71.81
2019-03-18T09:52:09.365Z,68.97
2019-03-18T09:54:44.529Z,69.19
2019-03-18T09:58:19.791Z,67.87
2019-03-18T10:00:59.583Z,68.55
2019-03-18T10:03:34.171Z,66.95
2019-03-18T10:06:05.632Z,67.71
2019-03-18T10:08:33.992Z,68.28
2019-03-18T10:11:03.092Z,68.68
2019-03-18T10:13:30.852Z,68.74
2019-03-18T10:15:58.475Z,67.77
2019-03-18T10:18:26.038Z,68.79
2019-03-18T10:20:53.772Z,68.66
2019-03-18T10:23:21.542Z,68.57
2019-03-18T10:25:49.153Z,66.89
2019-03-18T10:28:16.776Z,65.65
2019-03-18T10:30:44.432Z,67.12
2019-03-18T10:33:11.953Z,67.10
2019-03-18T10:35:39.576Z,66.81
2019-03-18T10:38:07.074Z,66.38
2019-03-18T10:40:34.671Z,65.19
2019-03-18T10:43:02.393Z,64.11
2019-03-18T10:45:29.972Z,63.76
2019-03-18T10:47:57.451Z,62.09
2019-03-18T10:50:25.312Z,61.10
2019-03-18T10:52:53.139Z,60.77
2019-03-18T10:55:21.089Z,60.92
2019-03-18T10:57:48.833Z,60.47
2019-03-18T11:00:16.998Z,60.50
2019-03-18T11:02:45.518Z,59.73
2019-03-18T11:05:13.894Z,59.81
2019-03-18T11:07:41.498Z,57.12
2019-03-18T11:10:14.994Z,56.44
2019-03-18T11:12:42.656Z,55.88
2019-03-18T11:15:11.332Z,56.37
2019-03-18T11:17:39.136Z,54.85
2019-03-18T11:20:07.553Z,54.46
2019-03-18T11:22:35.171Z,54.32
2019-03-18T11:25:02.776Z,54.32
2019-03-18T11:27:30.395Z,55.30
2019-03-18T11:29:58.422Z,55.17
2019-03-18T11:32:26.011Z,56.28
2019-03-18T11:34:53.534Z,57.14
2019-03-18T11:37:21.112Z,57.55
2019-03-18T11:39:48.714Z,57.72
2019-03-18T11:42:16.273Z,59.10
2019-03-18T11:44:44.193Z,65.53
2019-03-18T11:47:16.311Z,68.12
2019-03-18T11:49:41.374Z,70.33
2019-03-18T11:52:08.973Z,71.77
2019-03-18T11:54:36.624Z,73.38
2019-03-18T11:57:04.473Z,74.43
2019-03-18T11:59:32.013Z,74.68
2019-03-18T12:01:59.553Z,74.74
2019-03-18T12:04:27.132Z,72.42
2019-03-18T12:06:54.735Z,73.84
2019-03-18T12:09:22.254Z,72.42
2019-03-18T12:11:49.892Z,72.53
2019-03-18T12:14:17.452Z,71.28
2019-03-18T12:16:45.052Z,70.70
2019-03-18T12:19:12.672Z,70.91
2019-03-18T12:21:40.292Z,70.83
2019-03-18T12:24:09.452Z,69.82
2019-03-18T12:26:37.170Z,68.46
2019-03-18T12:29:08.053Z,68.50
2019-03-18T12:31:35.812Z,67.91
2019-03-18T12:34:03.435Z,66.43
2019-03-18T12:36:31.039Z,66.27
2019-03-18T12:38:58.589Z,66.68
2019-03-18T12:41:26.195Z,66.92
2019-03-18T12:44:14.792Z,67.48
2019-03-18T12:46:42.355Z,67.54
2019-03-18T12:49:09.993Z,66.99
2019-03-18T12:52:32.131Z,66.33
2019-03-18T12:58:56.713Z,63.63
2019-03-18T13:01:29.783Z,64.83
2019-03-18T13:03:56.313Z,64.06
2019-03-18T13:06:23.894Z,63.43
2019-03-18T13:09:01.972Z,62.76
2019-03-18T13:11:30.632Z,62.31
2019-03-18T13:13:58.092Z,61.75
2019-03-18T13:16:25.753Z,60.62
2019-03-18T13:18:53.353Z,59.94
2019-03-18T13:21:20.912Z,59.71
2019-03-18T13:23:48.632Z,59.66
2019-03-18T13:26:16.504Z,59.81
2019-03-18T13:28:44.073Z,59.94
2019-03-18T13:31:13.511Z,60.48
2019-03-18T13:33:45.012Z,61.03
2019-03-18T13:36:12.853Z,64.86
2019-03-18T13:38:40.831Z,66.23
2019-03-18T13:41:08.292Z,66.83
2019-03-18T13:43:35.824Z,65.39
2019-03-18T13:46:03.730Z,65.95
2019-03-18T13:48:31.293Z,63.07
2019-03-18T13:50:58.872Z,63.35
2019-03-18T13:53:27.414Z,63.10
2019-03-18T13:55:55.137Z,63.17
2019-03-18T13:58:23.014Z,63.53
2019-03-18T14:00:50.631Z,63.84
2019-03-18T14:03:18.800Z,63.02
2019-03-18T14:05:46.373Z,62.17
2019-03-18T14:08:14.112Z,61.52
2019-03-18T14:10:42.411Z,62.48
2019-03-18T14:13:10.179Z,61.89
2019-03-18T14:15:37.715Z,60.76
2019-03-18T14:18:05.413Z,61.39
2019-03-18T14:20:34.932Z,61.59
2019-03-18T14:23:05.473Z,61.77
2019-03-18T14:25:33.015Z,61.24
2019-03-18T14:28:00.618Z,59.60
2019-03-18T14:30:28.531Z,60.02
2019-03-18T14:32:56.174Z,58.59
2019-03-18T14:35:23.813Z,59.16
2019-03-18T14:37:51.493Z,58.21
2019-03-18T14:40:19.157Z,58.49
2019-03-18T14:42:46.793Z,58.58
2019-03-18T14:45:18.813Z,58.26
2019-03-18T14:47:54.863Z,58.52
2019-03-18T14:50:22.895Z,57.96
2019-03-18T14:52:59.593Z,58.69
2019-03-18T14:55:27.213Z,58.79
2019-03-18T14:57:56.073Z,58.79
2019-03-18T15:00:26.684Z,58.64
2019-03-18T15:02:54.553Z,59.07
2019-03-18T15:05:22.514Z,59.43
2019-03-18T15:07:57.774Z,60.21
2019-03-18T15:11:34.811Z,59.48
2019-03-18T15:14:02.694Z,59.95
2019-03-18T15:16:34.274Z,60.27
2019-03-18T15:19:01.993Z,60.15
2019-03-18T15:21:29.533Z,60.10
2019-03-18T15:23:57.153Z,60.50
2019-03-18T15:26:25.013Z,60.70
2019-03-18T15:28:52.993Z,61.46
2019-03-18T15:31:20.802Z,62.89
2019-03-18T15:33:48.514Z,63.96
2019-03-18T15:36:16.185Z,63.75
2019-03-18T15:38:43.793Z,63.28
2019-03-18T15:41:11.422Z,61.74
2019-03-18T15:43:39.212Z,61.89
2019-03-18T15:46:06.932Z,59.73
2019-03-18T15:48:34.636Z,58.43
2019-03-18T15:51:02.825Z,57.75
2019-03-18T15:53:30.562Z,57.00
2019-03-18T15:55:58.287Z,56.44
2019-03-18T15:58:26.095Z,56.39
2019-03-18T16:00:54.041Z,56.68
2019-03-18T16:03:21.834Z,56.55
2019-03-18T16:05:50.093Z,56.79
2019-03-18T16:08:21.867Z,57.41
2019-03-18T16:11:07.763Z,57.37
2019-03-18T16:13:35.571Z,57.79
2019-03-18T16:16:03.477Z,57.90
2019-03-18T16:18:31.382Z,57.96
2019-03-18T16:21:38.347Z,58.11
2019-03-18T16:24:06.062Z,58.45
2019-03-18T16:26:34.007Z,58.49
2019-03-18T16:29:03.316Z,58.12
2019-03-18T16:31:31.162Z,58.10
2019-03-18T16:33:59.137Z,57.91
2019-03-18T16:36:27.110Z,57.43
2019-03-18T16:38:55.237Z,59.36
2019-03-18T16:41:23.055Z,59.38
2019-03-18T16:43:51.036Z,59.85
2019-03-18T16:46:18.772Z,61.49
2019-03-18T16:48:46.706Z,62.16
2019-03-18T16:51:14.737Z,61.26
2019-03-18T16:53:42.421Z,60.00
2019-03-18T16:56:10.149Z,58.83
2019-03-18T16:58:37.837Z,59.04
2019-03-18T17:01:05.771Z,59.29
2019-03-18T17:03:33.461Z,57.20
2019-03-18T17:06:01.235Z,57.32
2019-03-18T17:08:29.022Z,57.59
2019-03-18T17:10:56.848Z,58.01
2019-03-18T17:13:24.562Z,57.37
2019-03-18T17:15:52.852Z,57.07
2019-03-18T17:18:20.667Z,57.07
2019-03-18T17:20:48.512Z,57.41
2019-03-18T17:23:16.277Z,57.54
2019-03-18T17:25:44.130Z,57.26
2019-03-18T17:28:12.107Z,57.83
2019-03-18T17:30:39.797Z,58.32
2019-03-18T17:33:07.592Z,58.33
2019-03-18T17:35:35.532Z,58.03
2019-03-18T17:38:03.431Z,58.15
2019-03-18T17:40:31.287Z,58.25
2019-03-18T17:42:59.481Z,58.64
2019-03-18T17:45:28.243Z,59.16
2019-03-18T17:47:56.497Z,58.90
2019-03-18T17:50:24.692Z,58.88
2019-03-18T17:53:02.297Z,59.02
2019-03-18T17:55:23.279Z,59.08
2019-03-18T17:57:51.137Z,59.69
2019-03-18T18:00:22.532Z,60.03
2019-03-18T18:02:52.569Z,60.13
2019-03-18T18:05:20.166Z,60.63
2019-03-18T18:07:48.071Z,60.85
2019-03-18T18:10:16.427Z,61.13
2019-03-18T18:12:44.111Z,61.03
2019-03-18T18:15:12.059Z,60.88
2019-03-18T18:17:39.856Z,60.71
2019-03-18T18:20:07.901Z,60.95
2019-03-18T18:22:36.016Z,60.81
2019-03-18T18:25:09.653Z,61.02
2019-03-18T18:27:37.541Z,61.45
2019-03-18T18:30:06.207Z,61.60
2019-03-18T18:32:34.020Z,61.35
2019-03-18T18:35:03.206Z,61.54
2019-03-18T18:37:30.932Z,62.19
2019-03-18T18:39:58.662Z,62.03
2019-03-18T18:42:26.496Z,62.71
2019-03-18T18:44:54.526Z,63.24
2019-03-18T18:47:22.406Z,63.46
2019-03-18T18:49:50.296Z,63.58
2019-03-18T18:52:18.186Z,64.09
2019-03-18T18:54:45.967Z,64.65
2019-03-18T18:57:13.827Z,65.04
2019-03-18T18:59:42.136Z,65.05
2019-03-18T19:02:09.931Z,65.08
2019-03-18T19:04:37.637Z,65.05
2019-03-18T19:07:05.626Z,65.57
2019-03-18T19:09:33.444Z,65.67
2019-03-18T19:12:01.431Z,65.88
2019-03-18T19:14:29.351Z,66.28
2019-03-18T19:16:57.208Z,66.29
2019-03-18T19:19:25.357Z,66.44
2019-03-18T19:21:53.515Z,66.81
2019-03-18T19:24:21.409Z,66.78
2019-03-18T19:26:49.426Z,67.11
2019-03-18T19:29:17.311Z,67.19
2019-03-18T19:31:45.107Z,67.68
2019-03-18T19:34:21.217Z,67.76
2019-03-18T19:36:51.972Z,67.87
2019-03-18T19:39:19.934Z,68.02
2019-03-18T19:41:49.309Z,68.31
2019-03-18T19:44:17.219Z,68.23
2019-03-18T19:46:45.183Z,68.36
2019-03-18T19:49:15.172Z,68.41
2019-03-18T19:51:45.882Z,68.40
2019-03-18T19:54:13.697Z,68.21
2019-03-18T19:56:41.603Z,68.41
2019-03-18T19:59:09.616Z,68.46
2019-03-18T20:01:37.611Z,68.49
2019-03-18T20:04:06.115Z,68.77
2019-03-18T20:06:38.991Z,68.75
2019-03-18T20:09:08.370Z,69.16
2019-03-18T20:11:38.891Z,69.37
2019-03-18T20:14:43.039Z,69.39
2019-03-18T20:17:13.327Z,69.69
2019-03-18T20:19:41.400Z,69.90
2019-03-18T20:22:10.586Z,70.32
2019-03-18T20:25:16.138Z,70.48
2019-03-18T20:27:44.612Z,70.67
2019-03-18T20:30:16.374Z,70.96
2019-03-18T20:32:44.243Z,71.39
2019-03-18T20:35:12.911Z,71.77
2019-03-18T20:37:40.747Z,71.85
2019-03-18T20:40:10.458Z,72.52
2019-03-18T20:42:38.292Z,72.58
2019-03-18T20:46:30.211Z,73.00
2019-03-18T20:48:29.795Z,73.29
2019-03-18T20:51:05.221Z,73.51
2019-03-18T20:53:40.456Z,73.57
2019-03-18T20:56:08.227Z,73.70
2019-03-18T20:58:36.039Z,74.07
2019-03-18T21:01:04.291Z,74.38
2019-03-18T21:03:31.947Z,74.57
2019-03-18T21:05:59.816Z,74.87
2019-03-18T21:08:28.001Z,74.86
2019-03-18T21:10:55.779Z,74.89
2019-03-18T21:13:23.696Z,74.79
2019-03-18T21:15:51.514Z,74.92
2019-03-18T21:18:19.391Z,75.18
2019-03-18T21:20:47.336Z,75.18
2019-03-18T21:23:18.511Z,74.94
2019-03-18T21:25:46.187Z,75.28
2019-03-18T21:28:16.640Z,75.50
2019-03-18T21:30:44.339Z,75.36
2019-03-18T21:33:12.433Z,75.41
2019-03-18T21:35:46.011Z,75.52
2019-03-18T21:38:20.607Z,75.48
2019-03-18T21:40:53.514Z,75.57
2019-03-18T21:43:21.191Z,75.74
2019-03-18T21:45:48.884Z,75.74
2019-03-18T21:48:17.032Z,75.68
2019-03-18T21:50:44.694Z,75.98
2019-03-18T21:53:12.463Z,75.87
2019-03-18T21:55:40.159Z,75.88
2019-03-18T21:58:07.736Z,75.90
2019-03-18T22:00:35.251Z,75.99
2019-03-18T22:03:02.718Z,76.26
2019-03-18T22:05:30.145Z,76.15
2019-03-18T22:07:57.571Z,76.30
2019-03-18T22:10:24.968Z,76.34
2019-03-18T22:12:52.376Z,76.34
2019-03-18T22:15:19.732Z,76.71
2019-03-18T22:17:47.134Z,76.48
2019-03-18T22:20:14.635Z,76.38
2019-03-18T22:22:42.151Z,76.62
2019-03-18T22:25:09.871Z,76.72
2019-03-18T22:27:37.301Z,76.85
2019-03-18T22:30:04.946Z,76.93
2019-03-18T22:32:32.351Z,77.11
2019-03-18T22:34:59.737Z,77.09
2019-03-18T22:37:27.170Z,77.15
2019-03-18T22:39:54.576Z,77.17
2019-03-18T22:42:21.991Z,77.11
2019-03-18T22:44:49.371Z,77.23
2019-03-18T22:47:16.803Z,77.58
2019-03-18T22:49:44.205Z,77.66
2019-03-18T22:52:11.573Z,77.80
2019-03-18T22:54:38.987Z,77.66
2019-03-18T22:57:06.476Z,77.83
2019-03-18T22:59:33.881Z,77.83
2019-03-18T23:02:01.236Z,77.72
2019-03-18T23:04:28.656Z,77.89
2019-03-18T23:06:56.112Z,78.03
2019-03-18T23:09:23.567Z,78.10
2019-03-18T23:11:50.949Z,78.15
2019-03-18T23:14:18.346Z,78.42
2019-03-18T23:16:45.906Z,78.54
2019-03-18T23:19:13.382Z,78.50
2019-03-18T23:21:40.739Z,78.91
2019-03-18T23:24:08.667Z,78.99
2019-03-18T23:26:36.058Z,79.23
2019-03-18T23:29:04.674Z,79.03
2019-03-18T23:31:32.032Z,78.97
2019-03-18T23:33:59.475Z,79.13
2019-03-18T23:36:27.451Z,79.21
2019-03-18T23:38:57.231Z,79.15
2019-03-18T23:41:30.302Z,78.96
2019-03-18T23:43:58.177Z,79.56
2019-03-18T23:46:29.912Z,79.07
2019-03-18T23:48:58.556Z,79.07
2019-03-18T23:51:25.951Z,79.19
2019-03-18T23:53:53.817Z,79.32
2019-03-18T23:56:28.001Z,79.30
2019-03-18T23:58:55.457Z,79.44
